| time (UTC) | temp F | wind direction | speed knots | gust knots | rain 1hr in | rain 24hr in | rain mn in | humidity % | barometer mb |
| 20260510153405 | 55 | 39 | 10.4 | 17.4 | 0.00 | 0.07 | 0.07 | 77 | 1013.5 |
| 20260510152905 | 54 | 42 | 10.4 | 21.7 | 0.00 | 0.07 | 0.07 | 77 | 1013.6 |
| 20260510152404 | 54 | 44 | 8.7 | 19.1 | 0.00 | 0.07 | 0.07 | 78 | 1013.6 |
| 20260510151904 | 54 | 42 | 10.4 | 20.9 | 0.00 | 0.07 | 0.07 | 78 | 1014.1 |
| 20260510151405 | 54 | 51 | 10.4 | 19.1 | 0.00 | 0.07 | 0.07 | 78 | 1014.1 |
| 20260510150905 | 54 | 19 | 10.4 | 19.1 | 0.00 | 0.07 | 0.07 | 78 | 1014.1 |
| 20260510150405 | 54 | 29 | 10.4 | 18.2 | 0.00 | 0.07 | 0.07 | 78 | 1014.1 |
| 20260510145905 | 54 | 26 | 8.7 | 17.4 | 0.00 | 0.07 | 0.07 | 79 | 1014.1 |
| 20260510144905 | 54 | 44 | 10.4 | 18.2 | 0.00 | 0.07 | 0.07 | 79 | 1014.1 |
| 20260510144404 | 54 | 38 | 7.8 | 15.6 | 0.00 | 0.07 | 0.07 | 80 | 1014.1 |
| 20260510143904 | 54 | 29 | 8.7 | 15.6 | 0.00 | 0.07 | 0.07 | 80 | 1014.1 |
| 20260510143405 | 54 | 30 | 7.0 | 13.9 | 0.00 | 0.07 | 0.07 | 80 | 1014.3 |
| 20260510142904 | 54 | 40 | 10.4 | 14.8 | 0.00 | 0.07 | 0.07 | 80 | 1014.3 |
| 20260510142405 | 54 | 34 | 9.6 | 17.4 | 0.00 | 0.07 | 0.07 | 80 | 1014.3 |
| 20260510141904 | 55 | 354 | 7.8 | 13.0 | 0.00 | 0.07 | 0.07 | 81 | 1014.3 |
| 20260510140906 | 55 | 26 | 7.0 | 11.3 | 0.00 | 0.07 | 0.07 | 82 | 1014.3 |
| 20260510135904 | 54 | 35 | 7.0 | 14.8 | 0.00 | 0.07 | 0.07 | 83 | 1014.3 |
| 20260510135404 | 54 | 32 | 8.7 | 13.9 | 0.00 | 0.07 | 0.07 | 83 | 1014.3 |
| 20260510134905 | 54 | 30 | 8.7 | 12.2 | 0.00 | 0.07 | 0.07 | 84 | 1014.3 |
| 20260510134404 | 53 | 58 | 7.8 | 15.6 | 0.00 | 0.07 | 0.07 | 85 | 1014.3 |
| 20260510133405 | 53 | 41 | 7.8 | 11.3 | 0.00 | 0.07 | 0.07 | 86 | 1014.3 |
| 20260510132905 | 53 | 46 | 6.1 | 12.2 | 0.00 | 0.07 | 0.07 | 86 | 1014.4 |
| 20260510132405 | 53 | 39 | 5.2 | 10.4 | 0.01 | 0.07 | 0.07 | 87 | 1014.4 |
| 20260510131405 | 53 | 34 | 5.2 | 10.4 | 0.01 | 0.07 | 0.07 | 87 | 1014.4 |
| 20260510130904 | 52 | 46 | 4.3 | 10.4 | 0.01 | 0.07 | 0.07 | 87 | 1015.0 |
| 20260510130405 | 52 | 60 | 6.1 | 10.4 | 0.02 | 0.07 | 0.07 | 87 | 1015.0 |
| 20260510125905 | 52 | 37 | 8.7 | 13.9 | 0.02 | 0.07 | 0.07 | 87 | 1015.0 |
| 20260510125405 | 52 | 41 | 8.7 | 15.6 | 0.02 | 0.07 | 0.07 | 87 | 1015.0 |
| 20260510124904 | 52 | 43 | 5.2 | 11.3 | 0.02 | 0.07 | 0.07 | 87 | 1015.0 |
| 20260510124404 | 52 | 21 | 5.2 | 12.2 | 0.03 | 0.07 | 0.07 | 87 | 1015.0 |
| 20260510123905 | 52 | 29 | 6.1 | 13.0 | 0.03 | 0.07 | 0.07 | 88 | 1015.0 |
| 20260510123404 | 51 | 32 | 8.7 | 13.0 | 0.03 | 0.07 | 0.07 | 87 | 1015.0 |
| 20260510122904 | 52 | 23 | 7.0 | 13.0 | 0.04 | 0.07 | 0.07 | 88 | 1015.0 |
| 20260510122404 | 52 | 11 | 6.1 | 11.3 | 0.04 | 0.06 | 0.06 | 88 | 1015.0 |
| 20260510121904 | 51 | 27 | 6.1 | 10.4 | 0.05 | 0.06 | 0.06 | 88 | 1015.0 |
| 20260510120904 | 51 | 24 | 6.1 | 11.3 | 0.06 | 0.06 | 0.06 | 87 | 1015.7 |
| 20260510120404 | 52 | 25 | 6.1 | 11.3 | 0.05 | 0.06 | 0.06 | 87 | 1015.7 |
| 20260510115904 | 52 | 340 | 6.1 | 13.0 | 0.05 | 0.06 | 0.06 | 86 | 1015.7 |
| 20260510115404 | 52 | 30 | 4.3 | 10.4 | 0.05 | 0.05 | 0.05 | 86 | 1015.7 |
| 20260510114905 | 52 | 36 | 5.2 | 11.3 | 0.05 | 0.05 | 0.05 | 86 | 1015.7 |
| 20260510114404 | 52 | 16 | 4.3 | 7.0 | 0.04 | 0.04 | 0.04 | 86 | 1015.7 |
| 20260510113904 | 52 | 26 | 5.2 | 8.7 | 0.04 | 0.04 | 0.04 | 85 | 1015.7 |
| 20260510113405 | 52 | 36 | 6.1 | 10.4 | 0.04 | 0.04 | 0.04 | 84 | 1015.7 |
| 20260510112904 | 52 | 45 | 6.1 | 13.0 | 0.03 | 0.03 | 0.03 | 83 | 1015.7 |
| 20260510112404 | 52 | 39 | 6.1 | 12.2 | 0.02 | 0.02 | 0.02 | 83 | 1015.7 |
| 20260510111905 | 52 | 33 | 6.1 | 12.2 | 0.02 | 0.02 | 0.02 | 82 | 1015.7 |
| 20260510111405 | 53 | 54 | 6.1 | 12.2 | 0.02 | 0.02 | 0.02 | 82 | 1015.7 |
| 20260510110904 | 53 | 66 | 5.2 | 12.2 | 0.01 | 0.01 | 0.01 | 81 | 1015.7 |
| 20260510110404 | 53 | 37 | 3.5 | 13.0 | 0.01 | 0.01 | 0.01 | 81 | 1015.7 |
| 20260510105904 | 53 | 46 | 8.7 | 17.4 | 0.01 | 0.01 | 0.01 | 79 | 1015.7 |
| 20260510105405 | 53 | 34 | 6.1 | 11.3 | 0.00 | 0.00 | 0.00 | 79 | 1015.7 |
| 20260510104904 | 53 | 47 | 7.8 | 14.8 | 0.00 | 0.00 | 0.00 | 78 | 1015.7 |
| 20260510104405 | 53 | 42 | 6.1 | 17.4 | 0.00 | 0.00 | 0.00 | 78 | 1015.7 |
| 20260510103404 | 53 | 40 | 7.0 | 15.6 | 0.00 | 0.00 | 0.00 | 78 | 1015.7 |
| 20260510102904 | 53 | 36 | 7.8 | 13.0 | 0.00 | 0.00 | 0.00 | 78 | 1015.7 |
| 20260510102404 | 53 | 38 | 7.8 | 17.4 | 0.00 | 0.00 | 0.00 | 78 | 1015.7 |
| 20260510100905 | 53 | 24 | 8.7 | 13.9 | 0.00 | 0.00 | 0.00 | 77 | 1015.7 |
| 20260510100404 | 54 | 26 | 7.0 | 12.2 | 0.00 | 0.00 | 0.00 | 77 | 1015.7 |
| 20260510095905 | 54 | 38 | 8.7 | 14.8 | 0.00 | 0.00 | 0.00 | 75 | 1015.7 |
| 20260510095404 | 54 | 31 | 7.8 | 12.2 | 0.00 | 0.00 | 0.00 | 74 | 1015.7 |
| 20260510093904 | 54 | 39 | 7.8 | 12.2 | 0.00 | 0.00 | 0.00 | 73 | 1015.7 |
| 20260510093405 | 54 | 38 | 8.7 | 12.2 | 0.00 | 0.00 | 0.00 | 72 | 1015.7 |
| 20260510092905 | 54 | 35 | 9.6 | 13.9 | 0.00 | 0.00 | 0.00 | 73 | 1015.7 |
| 20260510092404 | 54 | 43 | 7.8 | 14.8 | 0.00 | 0.00 | 0.00 | 73 | 1015.7 |
| 20260510091904 | 54 | 30 | 7.8 | 14.8 | 0.00 | 0.00 | 0.00 | 74 | 1015.6 |
| 20260510091405 | 54 | 29 | 8.7 | 13.9 | 0.00 | 0.00 | 0.00 | 73 | 1015.7 |
| 20260510090904 | 54 | 29 | 7.8 | 17.4 | 0.00 | 0.00 | 0.00 | 74 | 1015.7 |
| 20260510085904 | 54 | 28 | 6.1 | 13.0 | 0.00 | 0.00 | 0.00 | 74 | 1015.7 |
| 20260510085404 | 54 | 17 | 5.2 | 11.3 | 0.00 | 0.00 | 0.00 | 74 | 1015.7 |
| 20260510084904 | 54 | 29 | 7.8 | 13.0 | 0.00 | 0.00 | 0.00 | 74 | 1015.7 |
| 20260510084405 | 54 | 30 | 8.7 | 13.9 | 0.00 | 0.00 | 0.00 | 74 | 1015.7 |
| 20260510083904 | 53 | 26 | 10.4 | 14.8 | 0.00 | 0.00 | 0.00 | 74 | 1015.7 |
| 20260510083404 | 53 | 29 | 7.0 | 13.0 | 0.00 | 0.00 | 0.00 | 75 | 1015.7 |
| 20260510082404 | 53 | 18 | 9.6 | 19.1 | 0.00 | 0.00 | 0.00 | 75 | 1015.7 |
| 20260510081904 | 53 | 12 | 8.7 | 13.9 | 0.00 | 0.00 | 0.00 | 75 | 1015.7 |
| 20260510080904 | 53 | 32 | 7.8 | 13.0 | 0.00 | 0.00 | 0.00 | 75 | 1015.7 |
| 20260510080404 | 53 | 28 | 6.1 | 12.2 | 0.00 | 0.00 | 0.00 | 76 | 1015.7 |
| 20260510075905 | 53 | 28 | 7.0 | 12.2 | 0.00 | 0.00 | 0.00 | 76 | 1015.7 |
| 20260510075405 | 53 | 32 | 7.0 | 18.2 | 0.00 | 0.00 | 0.00 | 76 | 1015.7 |
| 20260510074904 | 53 | 38 | 8.7 | 13.9 | 0.00 | 0.00 | 0.00 | 76 | 1015.7 |
| 20260510074404 | 53 | 36 | 7.8 | 12.2 | 0.00 | 0.00 | 0.00 | 76 | 1015.7 |
| 20260510073904 | 53 | 30 | 7.8 | 14.8 | 0.00 | 0.00 | 0.00 | 76 | 1015.6 |
| 20260510073405 | 53 | 27 | 5.2 | 11.3 | 0.00 | 0.00 | 0.00 | 76 | 1015.6 |
| 20260510072904 | 53 | 23 | 7.8 | 13.0 | 0.00 | 0.00 | 0.00 | 76 | 1015.6 |
| 20260510072404 | 53 | 32 | 6.1 | 10.4 | 0.00 | 0.00 | 0.00 | 77 | 1015.7 |
| 20260510071905 | 53 | 26 | 7.8 | 13.0 | 0.00 | 0.00 | 0.00 | 77 | 1015.7 |
| 20260510071405 | 52 | 40 | 6.1 | 12.2 | 0.00 | 0.00 | 0.00 | 77 | 1015.6 |
| 20260510070905 | 52 | 19 | 7.8 | 13.9 | 0.00 | 0.00 | 0.00 | 77 | 1015.6 |
| 20260510070404 | 52 | 29 | 6.1 | 11.3 | 0.00 | 0.00 | 0.00 | 77 | 1015.6 |
| 20260510065404 | 52 | 43 | 10.4 | 18.2 | 0.00 | 0.00 | 0.00 | 77 | 1015.6 |
| 20260510064904 | 52 | 35 | 7.8 | 13.9 | 0.00 | 0.00 | 0.00 | 77 | 1015.6 |
| 20260510064404 | 52 | 27 | 7.8 | 13.9 | 0.00 | 0.00 | 0.00 | 78 | 1015.6 |
| 20260510063904 | 52 | 36 | 8.7 | 13.9 | 0.00 | 0.00 | 0.00 | 78 | 1015.6 |
| 20260510063404 | 52 | 21 | 8.7 | 15.6 | 0.00 | 0.00 | 0.00 | 78 | 1015.6 |
| 20260510062904 | 52 | 32 | 6.1 | 15.6 | 0.00 | 0.00 | 0.00 | 78 | 1015.6 |
| 20260510061404 | 51 | 26 | 7.8 | 11.3 | 0.00 | 0.00 | 0.00 | 79 | 1015.6 |
| 20260510060404 | 51 | 36 | 7.8 | 12.2 | 0.00 | 0.00 | 0.00 | 79 | 1015.6 |
| 20260510055904 | 51 | 29 | 8.7 | 13.9 | 0.00 | 0.00 | 0.00 | 79 | 1015.6 |
| 20260510054905 | 51 | 22 | 6.1 | 11.3 | 0.00 | 0.00 | 0.00 | 79 | 1015.6 |
| 20260510053904 | 51 | 33 | 7.0 | 13.9 | 0.00 | 0.00 | 0.00 | 79 | 1015.6 |
| 20260510053404 | 51 | 23 | 7.0 | 10.4 | 0.00 | 0.00 | 0.00 | 79 | 1015.6 |
| 20260510052905 | 51 | 31 | 5.2 | 12.2 | 0.00 | 0.00 | 0.00 | 79 | 1015.6 |
| 20260510052405 | 51 | 28 | 8.7 | 13.0 | 0.00 | 0.00 | 0.00 | 79 | 1015.6 |
| 20260510051905 | 51 | 21 | 6.1 | 12.2 | 0.00 | 0.00 | 0.00 | 79 | 1015.6 |
| 20260510051404 | 51 | 28 | 8.7 | 13.9 | 0.00 | 0.00 | 0.00 | 79 | 1015.6 |
| 20260510050904 | 51 | 33 | 12.2 | 13.0 | 0.00 | 0.00 | 0.00 | 80 | 1015.6 |
| 20260510050404 | 51 | 29 | 7.0 | 11.3 | 0.00 | 0.00 | 0.00 | 79 | 1015.5 |
| 20260510045904 | 51 | 23 | 7.8 | 13.9 | 0.00 | 0.00 | 0.00 | 79 | 1015.5 |
| 20260510045404 | 51 | 16 | 7.8 | 13.9 | 0.00 | 0.00 | 0.00 | 79 | 1015.5 |
| 20260510044904 | 51 | 25 | 7.8 | 13.0 | 0.00 | 0.00 | 0.00 | 79 | 1015.5 |
| 20260510044404 | 51 | 36 | 8.7 | 14.8 | 0.00 | 0.00 | 0.00 | 79 | 1015.5 |
| 20260510043905 | 51 | 24 | 7.0 | 13.9 | 0.00 | 0.00 | 0.00 | 78 | 1015.5 |
| 20260510043404 | 51 | 27 | 6.1 | 12.2 | 0.00 | 0.00 | 0.00 | 77 | 1015.5 |
| 20260510042904 | 52 | 22 | 7.8 | 13.0 | 0.00 | 0.00 | 0.00 | 77 | 1015.6 |
| 20260510041904 | 52 | 23 | 7.0 | 12.2 | 0.00 | 0.00 | 0.00 | 75 | 1015.6 |
| 20260510041404 | 52 | 21 | 6.1 | 13.0 | 0.00 | 0.00 | 0.00 | 74 | 1015.6 |
| 20260510040904 | 52 | 26 | 7.8 | 13.0 | 0.00 | 0.00 | 0.00 | 74 | 1015.6 |
| 20260510040406 | 52 | 36 | 7.0 | 10.4 | 0.00 | 0.00 | 0.00 | 73 | 1015.6 |
| 20260510035904 | 52 | 23 | 6.1 | 12.2 | 0.00 | 0.00 | 0.00 | 72 | 1015.6 |
| 20260510035404 | 52 | 26 | 5.2 | 11.3 | 0.00 | 0.00 | 0.00 | 72 | 1015.6 |
| 20260510034904 | 52 | 21 | 7.8 | 13.9 | 0.00 | 0.00 | 0.00 | 71 | 1015.7 |
| 20260510034404 | 53 | 31 | 7.0 | 13.0 | 0.00 | 0.00 | 0.00 | 70 | 1015.7 |
| 20260510033404 | 53 | 36 | 5.2 | 13.9 | 0.00 | 0.00 | 0.00 | 69 | 1015.8 |
| 20260510032904 | 53 | 30 | 6.1 | 10.4 | 0.00 | 0.00 | 0.00 | 69 | 1015.8 |
| 20260510032404 | 53 | 29 | 6.1 | 11.3 | 0.00 | 0.00 | 0.00 | 69 | 1015.8 |
| 20260510031904 | 54 | 29 | 7.0 | 13.0 | 0.00 | 0.00 | 0.00 | 68 | 1015.8 |
| 20260510030904 | 54 | 26 | 8.7 | 13.0 | 0.00 | 0.00 | 0.00 | 68 | 1015.8 |
| 20260510030404 | 54 | 28 | 8.7 | 13.0 | 0.00 | 0.00 | 0.00 | 68 | 1015.8 |
| 20260510025904 | 54 | 23 | 8.7 | 14.8 | 0.00 | 0.00 | 0.00 | 67 | 1015.8 |
| 20260510025405 | 54 | 30 | 7.0 | 13.0 | 0.00 | 0.00 | 0.00 | 67 | 1015.8 |
| 20260510024904 | 54 | 31 | 5.2 | 11.3 | 0.00 | 0.00 | 0.00 | 66 | 1015.8 |
| 20260510024404 | 54 | 31 | 7.0 | 14.8 | 0.00 | 0.00 | 0.00 | 66 | 1015.8 |
| 20260510023904 | 55 | 45 | 4.3 | 10.4 | 0.00 | 0.00 | 0.00 | 66 | 1015.6 |
| 20260510023405 | 55 | 34 | 6.1 | 13.9 | 0.00 | 0.00 | 0.00 | 65 | 1015.6 |
| 20260510022904 | 55 | 46 | 7.8 | 13.9 | 0.00 | 0.00 | 0.00 | 64 | 1015.7 |
| 20260510022404 | 55 | 44 | 7.0 | 15.6 | 0.00 | 0.00 | 0.00 | 64 | 1015.6 |
| 20260510021904 | 55 | 40 | 6.1 | 11.3 | 0.00 | 0.00 | 0.00 | 63 | 1015.7 |
| 20260510021404 | 55 | 35 | 6.1 | 13.0 | 0.00 | 0.00 | 0.00 | 63 | 1015.7 |
| 20260510020904 | 55 | 37 | 5.2 | 13.0 | 0.00 | 0.00 | 0.00 | 63 | 1015.8 |
| 20260510020404 | 55 | 28 | 6.1 | 13.0 | 0.00 | 0.00 | 0.00 | 62 | 1015.8 |
| 20260510015906 | 55 | 41 | 6.1 | 10.4 | 0.00 | 0.00 | 0.00 | 62 | 1015.8 |
| 20260510014904 | 55 | 37 | 7.8 | 12.2 | 0.00 | 0.00 | 0.00 | 61 | 1015.9 |
| 20260510014404 | 55 | 32 | 7.8 | 12.2 | 0.00 | 0.00 | 0.00 | 61 | 1015.9 |
| 20260510013904 | 55 | 41 | 5.2 | 10.4 | 0.00 | 0.00 | 0.00 | 62 | 1015.9 |
| 20260510013404 | 55 | 42 | 5.2 | 10.4 | 0.00 | 0.00 | 0.00 | 62 | 1015.7 |
| 20260510012904 | 55 | 46 | 6.1 | 12.2 | 0.00 | 0.00 | 0.00 | 61 | 1015.7 |
| 20260510012404 | 55 | 45 | 5.2 | 13.0 | 0.00 | 0.00 | 0.00 | 61 | 1015.7 |
| 20260510011905 | 55 | 37 | 4.3 | 10.4 | 0.00 | 0.00 | 0.00 | 61 | 1015.7 |
| 20260510011404 | 55 | 39 | 6.1 | 14.8 | 0.00 | 0.00 | 0.00 | 61 | 1015.9 |
| 20260510010904 | 55 | 39 | 6.1 | 14.8 | 0.00 | 0.00 | 0.00 | 60 | 1015.9 |
| 20260510010404 | 55 | 43 | 6.1 | 11.3 | 0.00 | 0.00 | 0.00 | 61 | 1015.9 |
| 20260510005904 | 55 | 43 | 4.3 | 11.3 | 0.00 | 0.00 | 0.00 | 60 | 1015.9 |
| 20260510004904 | 56 | 46 | 5.2 | 10.4 | 0.00 | 0.00 | 0.00 | 60 | 1016.0 |
| 20260510004405 | 56 | 39 | 5.2 | 12.2 | 0.00 | 0.00 | 0.00 | 60 | 1016.0 |
| 20260510003905 | 56 | 43 | 5.2 | 11.3 | 0.00 | 0.00 | 0.00 | 60 | 1016.0 |
| 20260510003405 | 56 | 42 | 4.3 | 8.7 | 0.00 | 0.00 | 0.00 | 60 | 1016.0 |
| 20260510002904 | 56 | 52 | 5.2 | 10.4 | 0.00 | 0.00 | 0.00 | 60 | 1016.0 |
| 20260510002404 | 56 | 46 | 5.2 | 8.7 | 0.00 | 0.00 | 0.00 | 59 | 1016.0 |
| 20260510001904 | 56 | 51 | 3.5 | 10.4 | 0.00 | 0.00 | 0.00 | 59 | 1015.9 |
| 20260510000904 | 56 | 51 | 4.3 | 10.4 | 0.00 | 0.00 | 0.00 | 58 | 1015.8 |
| 20260510000404 | 56 | 45 | 5.2 | 10.4 | 0.00 | 0.00 | 0.00 | 58 | 1015.8 |
| 20260509235904 | 56 | 56 | 4.3 | 7.0 | 0.00 | 0.00 | 0.00 | 58 | 1015.8 |
| 20260509235404 | 56 | 67 | 4.3 | 10.4 | 0.00 | 0.00 | 0.00 | 57 | 1015.8 |
| 20260509234904 | 56 | 58 | 4.3 | 11.3 | 0.00 | 0.00 | 0.00 | 56 | 1015.8 |
| 20260509234404 | 56 | 46 | 5.2 | 10.4 | 0.00 | 0.00 | 0.00 | 56 | 1015.6 |
| 20260509233904 | 56 | 47 | 5.2 | 10.4 | 0.00 | 0.00 | 0.00 | 56 | 1015.6 |
| 20260509233405 | 56 | 56 | 4.3 | 10.4 | 0.00 | 0.00 | 0.00 | 55 | 1015.6 |
| 20260509232904 | 57 | 53 | 4.3 | 8.7 | 0.00 | 0.00 | 0.00 | 55 | 1015.6 |
| 20260509232404 | 57 | 51 | 4.3 | 11.3 | 0.00 | 0.00 | 0.00 | 54 | 1015.6 |
| 20260509231404 | 57 | 46 | 3.5 | 10.4 | 0.00 | 0.00 | 0.00 | 54 | 1015.6 |
| 20260509230905 | 57 | 39 | 5.2 | 7.8 | 0.00 | 0.00 | 0.00 | 54 | 1015.6 |
| 20260509230404 | 57 | 58 | 4.3 | 10.4 | 0.00 | 0.00 | 0.00 | 53 | 1015.6 |
| 20260509225904 | 57 | 72 | 5.2 | 13.0 | 0.00 | 0.00 | 0.00 | 52 | 1015.6 |
| 20260509225404 | 57 | 61 | 5.2 | 11.3 | 0.00 | 0.00 | 0.00 | 52 | 1015.6 |
| 20260509224904 | 57 | 62 | 4.3 | 10.4 | 0.00 | 0.00 | 0.00 | 52 | 1015.6 |
| 20260509224405 | 58 | 56 | 7.0 | 13.0 | 0.00 | 0.00 | 0.00 | 52 | 1015.6 |
| 20260509223905 | 58 | 63 | 6.1 | 12.2 | 0.00 | 0.00 | 0.00 | 52 | 1015.6 |
| 20260509223405 | 58 | 56 | 4.3 | 10.4 | 0.00 | 0.00 | 0.00 | 53 | 1015.5 |
| 20260509222904 | 58 | 40 | 6.1 | 11.3 | 0.00 | 0.00 | 0.00 | 52 | 1015.7 |
| 20260509221904 | 58 | 64 | 5.2 | 12.2 | 0.00 | 0.00 | 0.00 | 52 | 1015.7 |
| 20260509220904 | 58 | 61 | 5.2 | 12.2 | 0.00 | 0.00 | 0.00 | 53 | 1015.7 |
| 20260509220404 | 58 | 70 | 5.2 | 12.2 | 0.00 | 0.00 | 0.00 | 53 | 1015.7 |
| 20260509215904 | 58 | 51 | 4.3 | 10.4 | 0.00 | 0.00 | 0.00 | 53 | 1015.6 |
| 20260509215404 | 58 | 52 | 4.3 | 7.0 | 0.00 | 0.00 | 0.00 | 54 | 1015.6 |
| 20260509214905 | 58 | 66 | 6.1 | 11.3 | 0.00 | 0.00 | 0.00 | 56 | 1015.6 |
| 20260509214404 | 58 | 49 | 4.3 | 10.4 | 0.00 | 0.00 | 0.00 | 55 | 1015.5 |
| 20260509213904 | 58 | 47 | 3.5 | 7.0 | 0.00 | 0.00 | 0.00 | 54 | 1015.5 |
| 20260509213405 | 58 | 46 | 4.3 | 7.8 | 0.00 | 0.00 | 0.00 | 54 | 1015.5 |
| 20260509212904 | 58 | 51 | 5.2 | 10.4 | 0.00 | 0.00 | 0.00 | 52 | 1015.5 |
| 20260509212404 | 58 | 47 | 4.3 | 10.4 | 0.00 | 0.00 | 0.00 | 51 | 1015.2 |
| 20260509211904 | 59 | 46 | 4.3 | 8.7 | 0.00 | 0.00 | 0.00 | 52 | 1015.2 |
| 20260509210904 | 59 | 33 | 5.2 | 10.4 | 0.00 | 0.00 | 0.00 | 51 | 1015.2 |
| 20260509210404 | 59 | 45 | 4.3 | 10.4 | 0.00 | 0.00 | 0.00 | 51 | 1015.2 |
| 20260509205904 | 59 | 52 | 4.3 | 11.3 | 0.00 | 0.00 | 0.00 | 51 | 1015.2 |
| 20260509205404 | 59 | 32 | 6.1 | 10.4 | 0.00 | 0.00 | 0.00 | 53 | 1015.2 |
| 20260509204904 | 59 | 32 | 5.2 | 11.3 | 0.00 | 0.00 | 0.00 | 54 | 1015.2 |
| 20260509203904 | 60 | 39 | 4.3 | 10.4 | 0.00 | 0.00 | 0.00 | 53 | 1015.2 |
| 20260509203404 | 60 | 71 | 4.3 | 11.3 | 0.00 | 0.00 | 0.00 | 54 | 1015.2 |
| 20260509202905 | 60 | 49 | 6.1 | 10.4 | 0.00 | 0.00 | 0.00 | 56 | 1014.5 |
| 20260509202404 | 60 | 38 | 4.3 | 10.4 | 0.00 | 0.00 | 0.00 | 58 | 1014.5 |
| 20260509201904 | 61 | 40 | 4.3 | 10.4 | 0.00 | 0.00 | 0.00 | 58 | 1014.5 |
| 20260509201405 | 61 | 50 | 5.2 | 10.4 | 0.00 | 0.00 | 0.00 | 57 | 1014.5 |
| 20260509200904 | 61 | 47 | 4.3 | 10.4 | 0.00 | 0.00 | 0.00 | 57 | 1014.5 |
| 20260509195905 | 62 | 48 | 6.1 | 13.0 | 0.00 | 0.00 | 0.00 | 58 | 1014.5 |
| 20260509194905 | 62 | 60 | 4.3 | 10.4 | 0.00 | 0.00 | 0.00 | 58 | 1014.5 |
| 20260509194404 | 62 | 61 | 6.1 | 11.3 | 0.00 | 0.00 | 0.00 | 58 | 1014.5 |
| 20260509193905 | 63 | 49 | 6.1 | 11.3 | 0.00 | 0.00 | 0.00 | 57 | 1014.4 |
| 20260509193404 | 63 | 48 | 5.2 | 11.3 | 0.00 | 0.00 | 0.00 | 57 | 1014.4 |
| 20260509192904 | 63 | 35 | 4.3 | 8.7 | 0.00 | 0.00 | 0.00 | 58 | 1014.5 |
| 20260509192404 | 63 | 53 | 5.2 | 10.4 | 0.00 | 0.00 | 0.00 | 58 | 1014.5 |
| 20260509191904 | 63 | 62 | 4.3 | 10.4 | 0.00 | 0.00 | 0.00 | 60 | 1014.5 |
| 20260509191404 | 63 | 49 | 4.3 | 8.7 | 0.00 | 0.00 | 0.00 | 60 | 1014.5 |
| 20260509190904 | 63 | 66 | 5.2 | 10.4 | 0.00 | 0.00 | 0.00 | 60 | 1014.2 |
| 20260509190404 | 63 | 52 | 2.6 | 7.8 | 0.00 | 0.00 | 0.00 | 61 | 1014.2 |
| 20260509185904 | 64 | 47 | 4.3 | 7.0 | 0.00 | 0.00 | 0.00 | 60 | 1014.2 |
| 20260509185404 | 64 | 50 | 2.6 | 6.1 | 0.00 | 0.00 | 0.00 | 60 | 1014.2 |
| 20260509184904 | 64 | 66 | 3.5 | 8.7 | 0.00 | 0.00 | 0.00 | 59 | 1014.2 |
| 20260509184404 | 64 | 69 | 1.7 | 4.3 | 0.00 | 0.00 | 0.00 | 59 | 1014.2 |
| 20260509183904 | 64 | 64 | 0.9 | 2.6 | 0.00 | 0.00 | 0.00 | 58 | 1014.2 |
| 20260509183404 | 64 | 73 | 2.6 | 6.1 | 0.00 | 0.00 | 0.00 | 58 | 1014.3 |
| 20260509182904 | 64 | 77 | 1.7 | 2.6 | 0.00 | 0.00 | 0.00 | 57 | 1014.3 |
| 20260509182405 | 64 | 79 | 1.7 | 6.1 | 0.00 | 0.00 | 0.00 | 57 | 1014.3 |
| 20260509181904 | 64 | 74 | 1.7 | 4.3 | 0.00 | 0.00 | 0.00 | 56 | 1014.3 |
| 20260509181405 | 64 | 27 | 0.9 | 4.3 | 0.00 | 0.00 | 0.00 | 56 | 1014.3 |
| 20260509180904 | 64 | 74 | 1.7 | 6.1 | 0.00 | 0.00 | 0.00 | 55 | 1014.3 |
| 20260509180404 | 65 | 96 | 1.7 | 4.3 | 0.00 | 0.00 | 0.00 | 55 | 1014.3 |
| 20260509175904 | 65 | 69 | 1.7 | 4.3 | 0.00 | 0.00 | 0.00 | 54 | 1014.3 |
| 20260509175404 | 65 | 101 | 3.5 | 6.1 | 0.00 | 0.00 | 0.00 | 54 | 1014.3 |
| 20260509174404 | 65 | 72 | 3.5 | 7.0 | 0.00 | 0.00 | 0.00 | 52 | 1014.3 |
| 20260509173904 | 66 | 82 | 1.7 | 6.1 | 0.00 | 0.00 | 0.00 | 55 | 1014.3 |
| 20260509173404 | 66 | 90 | 1.7 | 5.2 | 0.00 | 0.00 | 0.00 | 53 | 1014.3 |
| 20260509172904 | 66 | 69 | 0.9 | 5.2 | 0.00 | 0.00 | 0.00 | 52 | 1014.3 |
| 20260509172404 | 66 | 93 | 2.6 | 7.0 | 0.00 | 0.00 | 0.00 | 50 | 1014.3 |
| 20260509171904 | 66 | 85 | 3.5 | 7.0 | 0.00 | 0.00 | 0.00 | 50 | 1014.3 |
| 20260509171404 | 67 | 88 | 3.5 | 7.8 | 0.00 | 0.00 | 0.00 | 48 | 1014.3 |
| 20260509170904 | 67 | 83 | 3.5 | 10.4 | 0.00 | 0.00 | 0.00 | 49 | 1014.3 |
| 20260509170404 | 68 | 97 | 1.7 | 7.0 | 0.00 | 0.00 | 0.00 | 51 | 1014.3 |
| 20260509165904 | 67 | 101 | 3.5 | 8.7 | 0.00 | 0.00 | 0.00 | 50 | 1014.3 |
| 20260509165404 | 67 | 72 | 0.9 | 4.3 | 0.00 | 0.00 | 0.00 | 50 | 1014.3 |
| 20260509164905 | 67 | 81 | 4.3 | 7.8 | 0.00 | 0.00 | 0.00 | 50 | 1014.3 |
| 20260509164404 | 67 | 75 | 2.6 | 7.0 | 0.00 | 0.00 | 0.00 | 52 | 1014.3 |
| 20260509163904 | 67 | 66 | 2.6 | 6.1 | 0.00 | 0.00 | 0.00 | 53 | 1014.3 |
| 20260509163404 | 67 | 106 | 2.6 | 6.1 | 0.00 | 0.00 | 0.00 | 52 | 1014.4 |
| 20260509162404 | 67 | 79 | 2.6 | 6.1 | 0.00 | 0.00 | 0.00 | 52 | 1014.4 |
| 20260509161904 | 67 | 71 | 5.2 | 10.4 | 0.00 | 0.00 | 0.00 | 51 | 1014.4 |
| 20260509161404 | 67 | 58 | 4.3 | 10.4 | 0.00 | 0.00 | 0.00 | 51 | 1014.4 |
| 20260509160404 | 67 | 75 | 2.6 | 10.4 | 0.00 | 0.00 | 0.00 | 54 | 1014.4 |
| 20260509155904 | 67 | 38 | 0.9 | 5.2 | 0.00 | 0.00 | 0.00 | 53 | 1014.4 |
| 20260509155404 | 67 | 87 | 3.5 | 12.2 | 0.00 | 0.00 | 0.00 | 52 | 1014.4 |
| 20260509154905 | 67 | 66 | 3.5 | 7.0 | 0.00 | 0.00 | 0.00 | 52 | 1014.4 |
| 20260509154404 | 67 | 78 | 3.5 | 8.7 | 0.00 | 0.00 | 0.00 | 50 | 1014.4 |
| 20260509153904 | 67 | 80 | 5.2 | 8.7 | 0.00 | 0.00 | 0.00 | 50 | 1014.5 |